Time;durP1;ratioP1;P1;durP2;ratioP2;P2;SDS_P1;SDS_P2;PMS_P1;PMS_P2;Temp;Humidity;BMP_temperature;BMP_pressure;BME280_temperature;BME280_humidity;BME280_pressure;Samples;Min_cycle;Max_cycle;Signal;HPM_P1;HPM_P2
2021/12/19 00:00:06;;;;;;;2.22;2.13;;;;;;;3.80;78.16;100386.16;4127794;28;20265;-51
2021/12/19 00:02:37;;;;;;;1.95;1.85;;;;;;;3.71;77.81;100386.28;4146490;28;20197;-49
2021/12/19 00:09:01;;;;;;;2.30;2.08;;;;;;;3.81;78.18;100381.59;4157606;28;20205;-50
2021/12/19 00:11:06;;;;;;;2.60;2.40;;;;;;;3.81;77.54;100387.03;4145119;28;20214;-51
2021/12/19 00:13:09;;;;;;;1.95;1.85;;;;;;;3.81;77.50;100393.28;4155424;28;20219;-49
2021/12/19 00:15:11;;;;;;;2.38;2.22;;;;;;;3.77;77.80;100380.22;4146240;28;20301;-51
2021/12/19 00:17:12;;;;;;;2.30;2.20;;;;;;;3.75;78.41;100388.50;4143804;28;20209;-49
2021/12/19 00:19:14;;;;;;;2.40;2.30;;;;;;;3.82;77.90;100373.34;4145307;28;20206;-49
2021/12/19 00:21:17;;;;;;;1.67;1.58;;;;;;;3.86;77.66;100374.69;4174232;28;20212;-49
2021/12/19 00:23:19;;;;;;;2.28;2.17;;;;;;;3.83;78.41;100372.31;4161471;28;20593;-50
2021/12/19 00:25:21;;;;;;;2.17;2.08;;;;;;;3.87;78.37;100365.56;4142094;28;20229;-49
2021/12/19 00:27:23;;;;;;;3.13;2.55;;;;;;;3.87;77.89;100367.41;4142786;28;20746;-51
2021/12/19 00:29:25;;;;;;;2.40;2.20;;;;;;;3.87;78.01;100360.13;4172502;28;20279;-49
2021/12/19 00:31:27;;;;;;;2.40;2.30;;;;;;;3.88;77.98;100361.00;4158782;28;20239;-51
2021/12/19 00:33:29;;;;;;;2.65;2.45;;;;;;;3.99;77.70;100356.13;4159323;28;20217;-49
2021/12/19 00:35:31;;;;;;;2.58;2.45;;;;;;;3.94;77.88;100349.50;4142275;28;20225;-50
2021/12/19 00:37:33;;;;;;;2.65;2.45;;;;;;;3.95;78.25;100352.03;4159485;28;20251;-49
2021/12/19 00:39:34;;;;;;;3.13;2.92;;;;;;;3.94;77.83;100344.09;4159765;28;20243;-49
2021/12/19 00:41:36;;;;;;;2.17;2.08;;;;;;;3.93;78.25;100340.53;4142415;28;20239;-49
2021/12/19 00:43:54;;;;;;;3.05;2.85;;;;;;;3.87;78.29;100349.31;4174827;28;20447;-49
2021/12/19 00:45:56;;;;;;;2.95;2.75;;;;;;;3.91;77.88;100344.41;4157343;28;20228;-50
2021/12/19 00:48:04;;;;;;;2.97;2.78;;;;;;;3.95;77.77;100352.03;4156534;28;20681;-49
2021/12/19 00:50:06;;;;;;;4.22;3.85;;;;;;;3.99;77.84;100353.41;4173923;28;20240;-47
2021/12/19 00:52:15;;;;;;;3.05;2.75;;;;;;;3.93;77.72;100350.53;4155690;28;20208;-48
2021/12/19 00:54:17;;;;;;;2.80;2.60;;;;;;;3.93;77.89;100348.66;4159291;28;20232;-49
2021/12/19 00:56:19;;;;;;;3.67;3.38;;;;;;;3.96;78.37;100350.19;4157047;28;20231;-49
2021/12/19 00:58:21;;;;;;;2.40;2.20;;;;;;;4.00;78.48;100344.28;4144908;28;20205;-47
2021/12/19 01:00:26;;;;;;;2.38;2.28;;;;;;;3.96;77.91;100342.94;4158632;28;20205;-48
2021/12/19 01:02:28;;;;;;;2.53;2.42;;;;;;;4.05;78.24;100336.50;4173649;28;20215;-49
2021/12/19 01:04:30;;;;;;;2.50;2.38;;;;;;;4.06;77.94;100340.91;4161088;28;20320;-49
2021/12/19 01:06:32;;;;;;;2.22;2.13;;;;;;;3.80;78.56;100326.59;4160422;28;20245;-49
2021/12/19 01:08:34;;;;;;;2.60;2.42;;;;;;;3.81;78.32;100333.69;4159114;28;20213;-49
2021/12/19 01:10:36;;;;;;;3.08;2.80;;;;;;;3.84;78.45;100333.41;4160811;28;20236;-48
2021/12/19 01:12:38;;;;;;;2.60;2.40;;;;;;;3.89;78.37;100325.63;4174626;28;20617;-49
2021/12/19 01:14:40;;;;;;;2.65;2.45;;;;;;;3.89;78.21;100324.78;4140771;28;20236;-48
2021/12/19 01:16:42;;;;;;;2.90;2.70;;;;;;;3.90;78.47;100327.34;4155395;28;20209;-48
2021/12/19 01:18:44;;;;;;;2.38;2.17;;;;;;;3.91;78.51;100325.44;4174545;28;20299;-48
2021/12/19 01:20:45;;;;;;;2.65;2.45;;;;;;;3.96;78.30;100321.25;4159657;28;20248;-48
2021/12/19 01:22:48;;;;;;;3.30;3.00;;;;;;;3.97;78.32;100328.38;4158418;28;20216;-50
2021/12/19 01:24:50;;;;;;;1.58;1.48;;;;;;;3.92;78.29;100330.72;4157486;28;20712;-48
2021/12/19 01:26:51;;;;;;;2.80;2.60;;;;;;;3.92;78.52;100325.28;4137478;28;20202;-48
2021/12/19 01:28:53;;;;;;;2.20;2.10;;;;;;;3.92;78.05;100335.25;4139869;28;20205;-48
2021/12/19 01:30:55;;;;;;;2.13;1.98;;;;;;;3.93;78.33;100331.56;4158300;28;20208;-49
2021/12/19 01:32:56;;;;;;;2.53;2.35;;;;;;;3.95;77.74;100321.41;4170016;28;20692;-49
2021/12/19 01:34:58;;;;;;;2.05;1.95;;;;;;;3.94;77.96;100323.25;4138720;28;20709;-49
2021/12/19 01:37:00;;;;;;;2.20;2.10;;;;;;;3.93;78.17;100323.44;4139918;28;20219;-48
2021/12/19 01:39:02;;;;;;;2.33;2.22;;;;;;;3.96;78.27;100328.53;4156472;28;20260;-48
2021/12/19 01:41:05;;;;;;;2.22;2.13;;;;;;;3.98;77.84;100329.19;4127746;28;20213;-48
2021/12/19 01:43:07;;;;;;;1.98;1.88;;;;;;;3.96;78.24;100340.22;4145154;28;20233;-48
2021/12/19 01:45:13;;;;;;;2.35;2.25;;;;;;;3.95;78.22;100335.78;4156964;28;20703;-49
2021/12/19 01:47:15;;;;;;;2.42;2.28;;;;;;;4.09;78.14;100329.78;4173105;28;20200;-48
2021/12/19 01:49:21;;;;;;;2.10;2.00;;;;;;;4.03;77.87;100326.84;4127240;28;20300;-48
2021/12/19 01:51:23;;;;;;;2.88;2.67;;;;;;;3.98;78.72;100330.06;4136570;28;20327;-48
2021/12/19 01:53:25;;;;;;;1.90;1.80;;;;;;;3.97;78.32;100327.50;4158191;28;20212;-48
2021/12/19 01:55:27;;;;;;;2.10;2.00;;;;;;;3.95;78.44;100333.06;4154223;28;20221;-48
2021/12/19 01:57:28;;;;;;;1.88;1.77;;;;;;;3.99;77.98;100329.03;4138135;28;20329;-48
2021/12/19 01:59:30;;;;;;;2.25;2.05;;;;;;;4.00;78.35;100322.59;4153121;28;20215;-48
2021/12/19 02:01:41;;;;;;;2.40;2.20;;;;;;;4.02;77.81;100320.59;4137166;28;20209;-48
2021/12/19 02:03:43;;;;;;;4.10;3.70;;;;;;;4.03;77.90;100327.72;4119054;28;20398;-48
2021/12/19 02:05:45;;;;;;;6.45;5.95;;;;;;;4.07;77.92;100318.22;4140878;28;20249;-48
2021/12/19 02:07:47;;;;;;;6.10;5.60;;;;;;;4.13;77.67;100314.88;4158815;28;20207;-48
2021/12/19 02:09:49;;;;;;;5.40;5.00;;;;;;;4.07;77.74;100311.97;4138422;28;20209;-48
2021/12/19 02:11:51;;;;;;;5.68;5.18;;;;;;;4.08;78.49;100308.25;4169806;28;20232;-48
2021/12/19 02:13:53;;;;;;;4.47;4.18;;;;;;;4.06;78.28;100310.28;4157051;28;20604;-49
2021/12/19 02:15:56;;;;;;;3.75;3.45;;;;;;;4.03;77.87;100306.06;4145370;28;20235;-48
2021/12/19 02:18:00;;;;;;;3.88;3.58;;;;;;;4.01;78.41;100302.63;4137869;28;20236;-48
2021/12/19 02:20:03;;;;;;;3.58;3.28;;;;;;;4.03;77.96;100299.78;4156377;28;20630;-48
2021/12/19 02:22:04;;;;;;;3.70;3.47;;;;;;;4.07;77.91;100296.56;4140703;28;20751;-49
2021/12/19 02:24:09;;;;;;;4.18;3.60;;;;;;;4.00;77.97;100300.94;4157509;28;20224;-49
2021/12/19 02:26:13;;;;;;;3.53;3.33;;;;;;;4.01;78.38;100290.97;4157129;28;20290;-49
2021/12/19 02:28:15;;;;;;;3.05;2.85;;;;;;;4.00;78.14;100290.13;4156137;28;20249;-48
2021/12/19 02:30:17;;;;;;;2.67;2.47;;;;;;;4.08;78.29;100282.00;4142766;28;20201;-48
2021/12/19 02:32:18;;;;;;;3.35;3.15;;;;;;;4.05;78.06;100282.34;4153827;28;20201;-48
2021/12/19 02:34:24;;;;;;;2.72;2.53;;;;;;;4.16;77.93;100273.91;4140250;28;20210;-48
2021/12/19 02:36:42;;;;;;;3.42;3.17;;;;;;;4.04;77.93;100275.25;4155562;28;20304;-48
2021/12/19 02:50:10;;;;;;;2.20;2.10;;;;;;;4.01;78.73;100259.31;4155596;28;20250;-48
2021/12/19 02:52:16;;;;;;;3.15;2.92;;;;;;;4.02;78.62;100260.16;4155843;28;20271;-49
2021/12/19 02:54:18;;;;;;;3.03;2.58;;;;;;;4.07;78.66;100269.47;4159293;28;20234;-48
2021/12/19 02:56:20;;;;;;;3.28;2.97;;;;;;;4.07;78.26;100264.06;4169707;28;20247;-48
2021/12/19 02:58:22;;;;;;;2.42;2.22;;;;;;;4.03;78.22;100270.84;4170271;28;20208;-48
2021/12/19 03:00:26;;;;;;;3.05;2.67;;;;;;;4.06;77.94;100265.06;4159902;28;20204;-48
2021/12/19 03:02:28;;;;;;;3.15;2.95;;;;;;;4.04;79.00;100259.00;4155092;28;20744;-49
2021/12/19 03:04:30;;;;;;;2.88;2.67;;;;;;;4.05;78.55;100265.22;4141392;28;20244;-48
2021/12/19 03:06:32;;;;;;;3.05;2.72;;;;;;;4.06;78.32;100262.38;4143221;28;20303;-48
2021/12/19 03:08:34;;;;;;;3.00;2.80;;;;;;;4.08;78.77;100254.91;4145415;28;20201;-48
2021/12/19 03:19:41;;;;;;;2.22;2.13;;;;;;;4.14;78.06;100265.09;4159520;28;20227;-48
2021/12/19 03:21:44;;;;;;;2.45;2.30;;;;;;;4.08;78.13;100254.91;4139379;28;20619;-50
2021/12/19 03:23:45;;;;;;;2.40;2.25;;;;;;;4.14;78.39;100253.41;4153554;28;20280;-48
2021/12/19 03:25:47;;;;;;;2.85;2.65;;;;;;;4.07;78.24;100253.22;4140719;28;20316;-48
2021/12/19 03:27:49;;;;;;;2.60;2.40;;;;;;;4.15;78.07;100255.94;4136467;28;20206;-48
2021/12/19 03:29:50;;;;;;;2.47;2.38;;;;;;;4.19;77.90;100251.91;4154674;28;20646;-48
2021/12/19 03:31:52;;;;;;;2.50;2.40;;;;;;;4.17;77.88;100248.50;4159598;28;20212;-48
2021/12/19 03:33:54;;;;;;;2.10;1.95;;;;;;;4.26;77.40;100247.50;4143566;28;20675;-48
2021/12/19 03:35:56;;;;;;;1.40;1.40;;;;;;;4.22;77.75;100246.16;4170889;28;20235;-47
2021/12/19 03:38:00;;;;;;;1.90;1.80;;;;;;;4.06;77.71;100246.13;4169958;28;20221;-49
2021/12/19 03:40:11;;;;;;;2.38;2.17;;;;;;;4.04;78.26;100237.31;4154248;28;20231;-48
2021/12/19 03:42:13;;;;;;;2.63;2.47;;;;;;;4.02;78.09;100233.94;4155157;28;21937;-49
2021/12/19 03:44:15;;;;;;;1.55;1.45;;;;;;;4.00;78.18;100241.38;4173461;28;20196;-48
2021/12/19 03:46:17;;;;;;;2.63;2.42;;;;;;;4.07;77.63;100231.56;4159394;28;20279;-48
2021/12/19 03:48:20;;;;;;;1.80;1.70;;;;;;;4.04;78.14;100226.50;4139964;28;20213;-48
2021/12/19 03:50:23;;;;;;;1.85;1.75;;;;;;;4.04;78.16;100234.63;4173466;28;20681;-47
2021/12/19 03:52:25;;;;;;;1.85;1.75;;;;;;;4.02;78.12;100228.53;4171516;28;20332;-48
2021/12/19 03:54:27;;;;;;;2.58;2.40;;;;;;;4.03;77.94;100224.81;4158532;28;20665;-48
2021/12/19 03:56:28;;;;;;;2.30;2.20;;;;;;;4.08;77.91;100235.13;4174472;28;20638;-48
2021/12/19 03:58:30;;;;;;;2.35;2.25;;;;;;;4.03;77.94;100230.22;4144000;28;20229;-48
2021/12/19 04:00:32;;;;;;;2.63;2.45;;;;;;;4.01;78.38;100234.94;4160744;28;20277;-48
2021/12/19 04:02:34;;;;;;;2.28;2.17;;;;;;;4.03;77.86;100240.19;4160098;28;20236;-50
2021/12/19 04:04:38;;;;;;;2.13;1.92;;;;;;;4.00;78.45;100230.53;4159237;28;20201;-48
2021/12/19 04:06:40;;;;;;;2.17;2.08;;;;;;;4.01;78.55;100229.50;4146152;28;20232;-48
2021/12/19 04:08:42;;;;;;;2.40;2.30;;;;;;;4.03;77.91;100230.22;4142472;28;20210;-48
2021/12/19 04:10:48;;;;;;;2.63;2.42;;;;;;;4.04;78.45;100226.50;4142998;28;20248;-47
2021/12/19 04:12:50;;;;;;;2.63;2.53;;;;;;;4.10;78.28;100219.53;4158449;28;20204;-48
2021/12/19 04:14:52;;;;;;;2.88;2.67;;;;;;;4.09;77.85;100213.31;4156942;28;20260;-50
2021/12/19 04:16:54;;;;;;;2.53;2.42;;;;;;;4.11;77.71;100222.09;4160113;28;20303;-49
2021/12/19 04:18:56;;;;;;;2.60;2.50;;;;;;;4.15;77.48;100206.34;4128420;28;20222;-48
2021/12/19 04:20:57;;;;;;;2.33;2.22;;;;;;;4.09;77.92;100210.59;4177067;28;20201;-48
2021/12/19 04:22:59;;;;;;;2.85;2.65;;;;;;;4.15;77.46;100209.88;4143166;28;20213;-49
2021/12/19 04:25:01;;;;;;;3.25;3.05;;;;;;;4.12;77.54;100212.09;4156298;28;20319;-48
2021/12/19 04:27:03;;;;;;;2.88;2.67;;;;;;;4.19;77.84;100211.25;4143320;28;20217;-53
2021/12/19 04:29:08;;;;;;;3.22;3.03;;;;;;;4.14;77.39;100215.50;4136315;28;20201;-48
2021/12/19 04:31:10;;;;;;;3.50;3.30;;;;;;;4.12;77.88;100212.94;4155047;28;20792;-48
2021/12/19 04:33:13;;;;;;;3.88;3.58;;;;;;;4.12;77.98;100212.09;4144770;28;20233;-48
2021/12/19 04:35:15;;;;;;;3.55;3.35;;;;;;;4.13;78.13;100209.22;4173890;28;20347;-46
2021/12/19 04:37:50;;;;;;;4.50;4.13;;;;;;;4.16;77.58;100211.63;4141699;28;20218;-46
2021/12/19 04:40:09;;;;;;;4.47;4.18;;;;;;;4.16;77.41;100213.47;4160765;28;21144;-50
2021/12/19 05:00:34;;;;;;;7.57;7.07;;;;;;;4.17;77.92;100186.22;4162359;28;20204;-47
2021/12/19 05:15:54;;;;;;;7.55;6.95;;;;;;;4.14;77.56;100189.25;4155519;28;20251;-48
2021/12/19 05:18:03;;;;;;;8.15;7.55;;;;;;;4.16;78.05;100181.81;4142278;28;20206;-48
2021/12/19 05:22:10;;;;;;;6.82;6.40;;;;;;;4.18;77.60;100168.06;4160368;28;20892;-48
2021/12/19 05:24:44;;;;;;;7.78;7.28;;;;;;;4.17;77.82;100172.66;4158057;28;20212;-49
2021/12/19 05:26:43;;;;;;;8.77;8.18;;;;;;;4.22;77.92;100167.59;4155145;28;20315;-48
2021/12/19 05:28:48;;;;;;;8.48;7.88;;;;;;;4.22;77.39;100164.88;4140308;28;20231;-48
2021/12/19 05:30:50;;;;;;;8.50;7.82;;;;;;;4.18;77.49;100158.09;4141585;28;20260;-47
2021/12/19 05:32:53;;;;;;;9.13;8.40;;;;;;;4.23;77.06;100163.00;4144120;28;20210;-47
2021/12/19 05:34:55;;;;;;;8.85;8.25;;;;;;;4.22;77.54;100159.47;4142562;28;20229;-48
2021/12/19 05:46:18;;;;;;;10.98;10.07;;;;;;;4.32;77.56;100145.72;4157086;28;20229;-47
2021/12/19 05:48:20;;;;;;;10.52;9.73;;;;;;;4.26;77.71;100146.44;4155455;28;20205;-48
2021/12/19 05:50:23;;;;;;;11.30;10.40;;;;;;;4.24;77.94;100135.75;4170544;28;20232;-47
2021/12/19 05:52:26;;;;;;;11.73;10.93;;;;;;;4.27;77.55;100140.81;4142424;28;20252;-47
2021/12/19 05:54:28;;;;;;;11.27;10.48;;;;;;;4.24;77.83;100141.16;4156576;28;20216;-48
2021/12/19 05:56:31;;;;;;;12.40;11.40;;;;;;;4.28;77.74;100131.66;4160364;28;20220;-47
2021/12/19 05:58:33;;;;;;;12.73;11.73;;;;;;;4.23;77.20;100134.06;4144984;28;20233;-47
2021/12/19 06:00:35;;;;;;;11.98;11.07;;;;;;;4.20;77.27;100122.72;4174349;28;20204;-48
2021/12/19 06:02:36;;;;;;;12.70;11.75;;;;;;;4.20;77.92;100123.56;4140504;28;20224;-48
2021/12/19 06:04:38;;;;;;;11.98;11.20;;;;;;;4.24;77.32;100127.63;4138960;28;20204;-49
2021/12/19 06:06:40;;;;;;;11.65;10.85;;;;;;;4.20;77.92;100125.44;4151459;28;20245;-49
2021/12/19 06:08:41;;;;;;;12.15;11.25;;;;;;;4.19;77.72;100123.75;4151826;28;20271;-48
2021/12/19 06:10:43;;;;;;;12.40;11.50;;;;;;;4.23;77.51;100123.22;4141680;28;20646;-48
2021/12/19 06:12:45;;;;;;;11.13;10.25;;;;;;;4.19;77.81;100121.88;4159760;28;20248;-48
2021/12/19 06:14:48;;;;;;;11.63;10.75;;;;;;;4.34;77.56;100117.44;4144890;28;20233;-48
2021/12/19 06:16:49;;;;;;;12.32;11.40;;;;;;;4.25;77.75;100114.91;4147730;28;20292;-48
2021/12/19 06:18:51;;;;;;;11.45;10.65;;;;;;;4.38;76.92;100109.81;4141464;28;20205;-48
2021/12/19 06:20:53;;;;;;;14.40;13.13;;;;;;;4.25;77.31;100102.22;4142412;28;20225;-48
2021/12/19 06:22:54;;;;;;;13.85;12.77;;;;;;;4.27;77.59;100102.88;4141362;28;20229;-48
2021/12/19 06:24:56;;;;;;;13.60;12.68;;;;;;;4.27;77.23;100099.34;4153845;28;20249;-48
2021/12/19 06:26:58;;;;;;;14.63;13.52;;;;;;;4.24;77.17;100105.94;4141484;28;20288;-48
2021/12/19 06:29:00;;;;;;;14.77;13.68;;;;;;;4.21;77.43;100106.28;4157895;28;20243;-47
2021/12/19 06:31:02;;;;;;;14.23;13.32;;;;;;;4.30;77.46;100107.97;4154979;28;20196;-48
2021/12/19 06:33:04;;;;;;;15.82;14.38;;;;;;;4.27;77.21;100104.75;4150401;28;20224;-47
2021/12/19 06:35:11;;;;;;;14.25;13.15;;;;;;;4.35;76.72;100105.56;4139225;28;20233;-48
2021/12/19 06:37:12;;;;;;;14.07;12.93;;;;;;;4.36;76.91;100096.47;4140613;28;20209;-47
2021/12/19 06:39:14;;;;;;;13.02;11.95;;;;;;;4.27;77.22;100100.19;4156242;28;20302;-48
2021/12/19 06:41:16;;;;;;;13.32;12.27;;;;;;;4.36;76.75;100106.44;4141553;28;20633;-47
2021/12/19 06:43:17;;;;;;;12.63;11.55;;;;;;;4.26;76.15;100106.63;4138734;28;20209;-49
2021/12/19 06:45:20;;;;;;;12.68;11.48;;;;;;;4.25;76.34;100099.50;4140441;28;20723;-48
2021/12/19 06:47:22;;;;;;;8.88;8.27;;;;;;;4.17;76.29;100102.22;4169440;28;20223;-47
2021/12/19 06:49:23;;;;;;;10.23;9.45;;;;;;;4.29;76.49;100106.28;4141088;28;20194;-47
2021/12/19 06:51:25;;;;;;;13.05;11.65;;;;;;;4.15;76.25;100106.97;4153451;28;20662;-48
2021/12/19 06:53:27;;;;;;;12.27;11.32;;;;;;;4.18;76.83;100108.47;4154895;28;20203;-49
2021/12/19 06:55:29;;;;;;;11.40;10.60;;;;;;;4.14;76.39;100118.81;4158485;28;20751;-47
2021/12/19 06:57:31;;;;;;;13.40;12.38;;;;;;;4.14;76.50;100116.09;4140580;28;20229;-48
2021/12/19 06:59:33;;;;;;;14.00;13.00;;;;;;;4.11;77.37;100111.03;4141342;28;20790;-47
2021/12/19 07:01:38;;;;;;;14.20;13.13;;;;;;;4.28;76.56;100104.56;4139859;28;20209;-47
2021/12/19 07:03:40;;;;;;;13.95;12.95;;;;;;;4.27;76.40;100097.47;4156533;28;20258;-48
2021/12/19 07:05:43;;;;;;;14.77;13.57;;;;;;;4.20;76.65;100101.88;4154578;28;20235;-47
2021/12/19 07:07:47;;;;;;;14.73;13.63;;;;;;;4.22;76.95;100099.88;4152030;28;20216;-48
2021/12/19 07:09:49;;;;;;;14.25;13.00;;;;;;;4.21;76.98;100098.16;4156816;28;20240;-48
2021/12/19 07:11:51;;;;;;;13.18;12.25;;;;;;;4.17;76.78;100102.22;4141084;28;20229;-55
2021/12/19 07:13:53;;;;;;;14.65;13.50;;;;;;;4.16;76.90;100095.13;4154637;28;20228;-48
2021/12/19 07:15:56;;;;;;;13.48;12.45;;;;;;;4.22;76.83;100102.56;4138064;28;20225;-47
2021/12/19 07:18:02;;;;;;;12.98;11.90;;;;;;;4.26;76.63;100106.63;4139447;28;20209;-47
2021/12/19 07:20:07;;;;;;;13.35;12.45;;;;;;;4.29;76.63;100111.72;4139951;28;20198;-47
2021/12/19 07:22:09;;;;;;;12.60;11.60;;;;;;;4.21;76.94;100108.97;4154425;28;20209;-47
2021/12/19 07:24:11;;;;;;;12.68;11.68;;;;;;;4.19;76.42;100110.19;4152865;28;20205;-49
2021/12/19 07:26:12;;;;;;;13.20;11.95;;;;;;;4.24;76.40;100105.94;4125309;28;20249;-48
2021/12/19 07:28:14;;;;;;;12.90;11.88;;;;;;;4.20;76.54;100112.72;4160177;28;20240;-48
2021/12/19 07:30:25;;;;;;;11.85;10.88;;;;;;;4.35;76.40;100108.28;4161428;28;20197;-48
2021/12/19 07:32:27;;;;;;;11.57;10.63;;;;;;;4.30;76.35;100113.41;4142129;28;20212;-48
2021/12/19 07:34:50;;;;;;;11.63;10.73;;;;;;;4.25;76.45;100110.34;4159855;28;20210;-51
2021/12/19 07:36:53;;;;;;;12.32;11.30;;;;;;;4.23;76.96;100117.81;4173900;28;20204;-47
2021/12/19 07:39:07;;;;;;;12.38;11.45;;;;;;;4.25;76.95;100109.50;4125328;28;20226;-48
2021/12/19 07:41:08;;;;;;;13.15;12.10;;;;;;;4.22;76.53;100110.72;4144299;28;20235;-47
2021/12/19 07:43:10;;;;;;;13.50;12.43;;;;;;;4.22;76.66;100115.25;4161016;28;20255;-48
2021/12/19 07:45:13;;;;;;;11.65;10.75;;;;;;;4.22;76.96;100110.72;4142618;28;20264;-48
2021/12/19 07:47:15;;;;;;;13.70;12.60;;;;;;;4.27;76.45;100107.47;4175333;28;20252;-49
2021/12/19 07:49:17;;;;;;;14.45;13.25;;;;;;;4.33;76.24;100094.06;4160518;28;20233;-48
2021/12/19 07:51:19;;;;;;;16.10;14.80;;;;;;;4.31;76.10;100101.53;4157088;28;20201;-47
2021/12/19 07:53:20;;;;;;;14.43;13.32;;;;;;;4.28;76.18;100098.31;4145247;28;20201;-47
2021/12/19 07:55:23;;;;;;;15.15;13.95;;;;;;;4.33;76.15;100095.97;4142848;28;20233;-47
2021/12/19 07:57:25;;;;;;;14.63;13.50;;;;;;;4.18;76.88;100084.97;4172725;28;20286;-47
2021/12/19 07:59:28;;;;;;;12.38;11.43;;;;;;;4.25;76.57;100088.66;4145564;28;20241;-48
2021/12/19 08:01:29;;;;;;;12.65;11.75;;;;;;;4.31;76.59;100087.13;4145103;28;20654;-48
2021/12/19 08:03:31;;;;;;;12.48;10.95;;;;;;;4.19;76.56;100089.34;4161397;28;20714;-48
2021/12/19 08:05:33;;;;;;;11.93;11.00;;;;;;;4.16;76.75;100078.88;4143582;28;20647;-48
2021/12/19 08:07:35;;;;;;;13.85;12.75;;;;;;;4.18;77.15;100087.66;4144627;28;20229;-48
2021/12/19 08:09:41;;;;;;;12.35;11.45;;;;;;;4.29;76.41;100087.31;4161263;28;20232;-49
2021/12/19 08:11:43;;;;;;;11.93;11.02;;;;;;;4.35;76.26;100085.78;4156853;28;20708;-47
2021/12/19 08:13:45;;;;;;;12.18;11.27;;;;;;;4.25;76.71;100085.09;4160657;28;20240;-48
2021/12/19 08:15:46;;;;;;;12.40;11.43;;;;;;;4.21;76.59;100081.91;4140539;28;20225;-48
2021/12/19 08:17:48;;;;;;;12.20;11.20;;;;;;;4.07;76.87;100084.47;4161702;28;20204;-47
2021/12/19 08:19:50;;;;;;;13.07;12.07;;;;;;;4.13;76.64;100084.63;4142450;28;20271;-48
2021/12/19 08:21:53;;;;;;;12.77;11.63;;;;;;;4.07;77.13;100085.31;4144094;28;20210;-47
2021/12/19 08:23:58;;;;;;;13.18;12.07;;;;;;;4.07;77.11;100084.47;4142625;28;20720;-48
2021/12/19 08:26:01;;;;;;;11.40;10.50;;;;;;;4.07;77.31;100082.59;4143253;28;20217;-49
2021/12/19 08:28:03;;;;;;;12.93;11.93;;;;;;;4.09;77.25;100077.88;4141244;28;20228;-48
2021/12/19 08:30:08;;;;;;;13.13;11.85;;;;;;;4.20;77.08;100074.78;4141595;28;20619;-48
2021/12/19 08:32:10;;;;;;;18.92;17.33;;;;;;;4.08;77.24;100076.16;4145090;28;20210;-48
2021/12/19 08:34:11;;;;;;;11.80;10.80;;;;;;;4.09;77.75;100071.59;4142725;28;20216;-48
2021/12/19 08:36:13;;;;;;;13.80;12.77;;;;;;;4.01;77.60;100075.16;4154727;28;20217;-47
2021/12/19 08:38:15;;;;;;;14.40;13.20;;;;;;;4.04;77.43;100069.41;4140047;28;20766;-47
2021/12/19 08:40:17;;;;;;;13.02;11.93;;;;;;;4.00;77.65;100065.34;4142511;28;20244;-47
2021/12/19 08:42:19;;;;;;;12.18;11.32;;;;;;;4.04;77.38;100063.13;4139976;28;20683;-48
2021/12/19 08:44:21;;;;;;;12.13;11.23;;;;;;;3.94;77.95;100057.88;4141866;28;20271;-48
2021/12/19 08:46:23;;;;;;;11.77;10.77;;;;;;;4.04;77.31;100060.41;4157063;28;20262;-47
2021/12/19 08:48:25;;;;;;;10.35;9.50;;;;;;;4.00;77.98;100053.66;4142204;28;20237;-47
2021/12/19 08:50:26;;;;;;;12.85;11.85;;;;;;;3.99;77.96;100052.81;4142770;28;20205;-47
2021/12/19 08:52:28;;;;;;;13.60;12.38;;;;;;;3.97;78.15;100054.84;4147032;28;20316;-48
2021/12/19 08:54:30;;;;;;;13.15;11.90;;;;;;;3.88;78.42;100046.91;4159368;28;20292;-47
2021/12/19 08:56:32;;;;;;;12.93;11.82;;;;;;;3.88;78.41;100047.72;4143365;28;20273;-47
2021/12/19 08:58:34;;;;;;;14.52;13.45;;;;;;;3.94;78.55;100047.06;4154921;28;20586;-47
2021/12/19 09:00:36;;;;;;;13.38;12.32;;;;;;;4.07;77.90;100044.69;4155890;28;20205;-48
2021/12/19 09:02:38;;;;;;;14.57;13.38;;;;;;;4.07;77.84;100046.56;4144687;28;20232;-47
2021/12/19 09:04:40;;;;;;;14.73;13.38;;;;;;;4.09;78.26;100039.94;4157587;28;20664;-47
2021/12/19 09:06:42;;;;;;;14.70;13.48;;;;;;;4.10;77.33;100047.06;4159910;28;20235;-48
2021/12/19 09:08:43;;;;;;;14.80;13.65;;;;;;;4.10;77.86;100041.63;4137454;28;20213;-48
2021/12/19 09:10:51;;;;;;;18.10;16.48;;;;;;;4.11;78.05;100043.31;4139542;28;20216;-52
2021/12/19 09:12:55;;;;;;;17.42;15.93;;;;;;;4.17;77.73;100048.06;4157720;28;20308;-48
2021/12/19 09:14:57;;;;;;;16.92;15.52;;;;;;;4.16;77.78;100046.38;4156223;28;20232;-50
2021/12/19 09:17:01;;;;;;;17.30;15.65;;;;;;;4.22;77.40;100048.41;4143189;28;20289;-49
2021/12/19 09:19:03;;;;;;;17.08;15.60;;;;;;;4.40;77.30;100049.00;4140946;28;20741;-50
2021/12/19 09:21:05;;;;;;;16.13;14.73;;;;;;;4.40;77.46;100053.59;4156008;28;20208;-49
2021/12/19 09:23:06;;;;;;;15.93;14.60;;;;;;;4.27;77.13;100054.13;4171229;28;20633;-50
2021/12/19 09:25:08;;;;;;;14.88;13.63;;;;;;;4.29;77.39;100052.09;4139568;28;20707;-49
2021/12/19 09:27:10;;;;;;;16.17;14.93;;;;;;;4.35;77.07;100053.25;4140694;28;20714;-52
2021/12/19 09:29:12;;;;;;;16.92;15.23;;;;;;;4.39;77.24;100052.75;4141156;28;20213;-49
2021/12/19 09:31:13;;;;;;;16.20;14.90;;;;;;;4.49;76.66;100049.84;4170984;28;20204;-52
2021/12/19 09:33:15;;;;;;;13.20;12.20;;;;;;;4.42;77.04;100047.00;4154818;28;20205;-49
2021/12/19 09:35:17;;;;;;;14.35;13.20;;;;;;;4.42;77.30;100052.41;4138814;28;20331;-50
2021/12/19 09:37:19;;;;;;;13.93;12.75;;;;;;;4.44;76.82;100050.38;4140524;28;20220;-49
2021/12/19 09:39:22;;;;;;;13.13;12.13;;;;;;;4.47;76.80;100050.00;4159094;28;20208;-49
2021/12/19 09:41:30;;;;;;;13.27;12.25;;;;;;;4.45;77.29;100046.63;4141835;28;20675;-50
2021/12/19 09:43:41;;;;;;;15.57;13.80;;;;;;;4.54;76.76;100055.59;4157281;28;20327;-51
2021/12/19 09:45:43;;;;;;;14.25;13.15;;;;;;;4.48;77.24;100048.97;4143650;28;20233;-49
2021/12/19 09:47:45;;;;;;;14.63;13.52;;;;;;;4.58;76.89;100041.50;4159177;28;20247;-48
2021/12/19 09:49:48;;;;;;;14.75;13.35;;;;;;;4.64;76.41;100042.66;4154564;28;20705;-49
2021/12/19 09:51:50;;;;;;;13.20;12.10;;;;;;;4.60;76.27;100047.59;4139997;28;20296;-49
2021/12/19 09:53:55;;;;;;;14.82;13.73;;;;;;;4.55;76.56;100052.72;4141128;28;20564;-49
2021/12/19 09:55:57;;;;;;;14.50;13.30;;;;;;;4.59;76.71;100043.19;4155718;28;20264;-50
2021/12/19 09:57:59;;;;;;;14.48;13.38;;;;;;;4.59;76.79;100051.31;4138051;28;20218;-49
2021/12/19 10:00:02;;;;;;;14.68;13.57;;;;;;;4.54;76.63;100040.16;4152394;28;20986;-48
2021/12/19 10:02:04;;;;;;;16.27;14.88;;;;;;;4.61;76.55;100035.72;4139828;28;20818;-50
2021/12/19 10:04:35;;;;;;;15.13;13.93;;;;;;;4.61;76.72;100035.72;4157347;28;20325;-50
2021/12/19 10:06:36;;;;;;;16.67;15.18;;;;;;;4.74;76.51;100027.88;4171045;28;20208;-49
2021/12/19 10:08:39;;;;;;;15.88;14.60;;;;;;;4.72;75.95;100023.66;4169235;28;20224;-50
2021/12/19 10:10:53;;;;;;;15.88;14.57;;;;;;;4.75;76.46;100021.47;4138262;28;20205;-50
2021/12/19 10:12:58;;;;;;;13.88;12.65;;;;;;;4.69;76.88;100022.16;4138166;28;20206;-50
2021/12/19 10:15:09;;;;;;;14.13;12.93;;;;;;;4.69;76.61;100011.31;4169806;28;20223;-49
2021/12/19 10:17:20;;;;;;;16.00;14.52;;;;;;;4.79;76.68;100006.50;4172576;28;20211;-49
2021/12/19 10:19:40;;;;;;;15.13;13.82;;;;;;;4.76;76.39;100006.88;4156762;28;20287;-50
2021/12/19 10:21:42;;;;;;;15.13;13.93;;;;;;;4.74;76.67;100003.47;4138969;28;20661;-50
2021/12/19 10:23:44;;;;;;;14.68;13.32;;;;;;;4.76;76.69;100011.44;4152072;28;20217;-50
2021/12/19 10:26:00;;;;;;;16.75;14.35;;;;;;;4.83;76.38;100012.41;4156493;28;20672;-50
2021/12/19 10:28:09;;;;;;;17.67;16.35;;;;;;;4.68;76.40;100004.19;4160247;28;20646;-50
2021/12/19 10:30:20;;;;;;;14.05;12.85;;;;;;;4.76;76.82;100000.59;4156741;28;20197;-51
2021/12/19 10:32:22;;;;;;;16.98;15.48;;;;;;;4.79;76.77;99992.94;4155737;28;20207;-50
2021/12/19 10:34:23;;;;;;;15.88;14.27;;;;;;;4.80;76.37;99985.69;4141890;28;20213;-50
2021/12/19 10:36:28;;;;;;;15.57;14.38;;;;;;;4.91;76.08;99987.97;4160005;28;20308;-50
2021/12/19 10:38:52;;;;;;;16.02;14.65;;;;;;;4.80;76.34;99986.50;4142654;28;20193;-50
2021/12/19 10:41:21;;;;;;;19.10;13.55;;;;;;;4.85;76.26;99978.69;4139851;28;20527;-51